PWSweather.com
Personal Weather Stations
Station Observations
PWSTHORN2
Thornton, Nh Usa, Thornton, NH 03285

Thornton, Nh UsaThornton, NH 03285

Lat: 43.8870699, Lon: -71.6632763

Elevation: 640

Station Type: Ambient WS 2080

High Low Average
Temperature 83.7°F28.7°C 45.3°F7.4°C 66.1°F18.9°C
Dew Point 69.3°F20.7°C 33.1°F0.6°C 52.7°F11.5°C
Winds 10.7 mph 17.2 kmh Calm Calm 3.0 mph S4.8 kmh S
Wind Gusts 25.1 mph40.4 kmh 1.6 mph2.6 kmh 8.0 mph12.9 kmh
Humidity 62% 62% 62%
Pressure 29.63 in1003.4 mb 29.40 in995.6 mb -
Precipitation 0.00 in0.0 mm - -
Hour Temp Dew Point Humidity Winds Wind Gusts Pressure Precip Precip Rate Daily Precip Total
12:00 AM 55.0°F12.8°C 42.3°F5.7°C 62% 1.6 mph SW2.6 kmh SW 3.8 mph6.1 kmh 29.48 in998.3 mb 0.00 in0.0 mm 0.00 in0.0 mm 0.00 in0.0 mm
12:05 AM 54.7°F12.6°C 41.9°F5.5°C 62% 1.6 mph SW2.6 kmh SW 3.8 mph6.1 kmh 29.49 in998.6 mb 0.00 in0.0 mm 0.00 in0.0 mm 0.00 in0.0 mm
12:10 AM 54.5°F12.5°C 41.8°F5.4°C 62% 1.6 mph SW2.6 kmh SW 3.1 mph5.0 kmh 29.50 in999.0 mb 0.00 in0.0 mm 0.00 in0.0 mm 0.00 in0.0 mm
12:15 AM 54.3°F12.4°C 41.6°F5.3°C 62% 3.8 mph SW6.1 kmh SW 4.5 mph7.2 kmh 29.50 in999.0 mb 0.00 in0.0 mm 0.00 in0.0 mm 0.00 in0.0 mm
12:20 AM 54.0°F12.2°C 41.2°F5.1°C 62% 3.1 mph SW5.0 kmh SW 4.5 mph7.2 kmh 29.50 in999.0 mb 0.00 in0.0 mm 0.00 in0.0 mm 0.00 in0.0 mm
12:25 AM 53.6°F12.0°C 40.9°F4.9°C 62% 4.5 mph SW7.2 kmh SW 5.4 mph8.7 kmh 29.50 in999.0 mb 0.00 in0.0 mm 0.00 in0.0 mm 0.00 in0.0 mm
12:30 AM 53.4°F11.9°C 40.7°F4.8°C 62% 1.6 mph SW2.6 kmh SW 5.4 mph8.7 kmh 29.50 in999.0 mb 0.00 in0.0 mm 0.00 in0.0 mm 0.00 in0.0 mm
12:35 AM 53.2°F11.8°C 40.6°F4.8°C 62% 1.6 mph SW2.6 kmh SW 5.4 mph8.7 kmh 29.50 in999.0 mb 0.00 in0.0 mm 0.00 in0.0 mm 0.00 in0.0 mm
12:40 AM 52.9°F11.6°C 40.2°F4.6°C 62% 2.2 mph SW3.5 kmh SW 3.8 mph6.1 kmh 29.50 in999.0 mb 0.00 in0.0 mm 0.00 in0.0 mm 0.00 in0.0 mm
12:45 AM 52.5°F11.4°C 39.9°F4.4°C 62% Calm Calm 4.5 mph7.2 kmh 29.50 in999.0 mb 0.00 in0.0 mm 0.00 in0.0 mm 0.00 in0.0 mm
12:50 AM 52.5°F11.4°C 39.9°F4.4°C 62% Calm Calm 4.5 mph7.2 kmh 29.51 in999.3 mb 0.00 in0.0 mm 0.00 in0.0 mm 0.00 in0.0 mm
12:55 AM 52.3°F11.3°C 39.7°F4.3°C 62% 1.6 mph SW2.6 kmh SW 3.1 mph5.0 kmh 29.50 in999.0 mb 0.00 in0.0 mm 0.00 in0.0 mm 0.00 in0.0 mm
01:00 AM 52.7°F11.5°C 40.1°F4.5°C 62% Calm Calm 6.0 mph9.7 kmh 29.51 in999.3 mb 0.00 in0.0 mm 0.00 in0.0 mm 0.00 in0.0 mm
01:05 AM 52.5°F11.4°C 39.9°F4.4°C 62% 0.7 mph SW1.1 kmh SW 6.0 mph9.7 kmh 29.50 in999.0 mb 0.00 in0.0 mm 0.00 in0.0 mm 0.00 in0.0 mm
01:10 AM 52.3°F11.3°C 39.7°F4.3°C 62% 4.5 mph SW7.2 kmh SW 7.6 mph12.2 kmh 29.51 in999.3 mb 0.00 in0.0 mm 0.00 in0.0 mm 0.00 in0.0 mm
01:15 AM 53.8°F12.1°C 41.1°F5.1°C 62% 0.7 mph SW1.1 kmh SW 7.6 mph12.2 kmh 29.51 in999.3 mb 0.00 in0.0 mm 0.00 in0.0 mm 0.00 in0.0 mm
01:20 AM 53.2°F11.8°C 40.6°F4.8°C 62% 1.6 mph SW2.6 kmh SW 6.0 mph9.7 kmh 29.52 in999.7 mb 0.00 in0.0 mm 0.00 in0.0 mm 0.00 in0.0 mm
01:25 AM 53.1°F11.7°C 40.4°F4.7°C 62% Calm Calm 3.1 mph5.0 kmh 29.53 in1000.0 mb 0.00 in0.0 mm 0.00 in0.0 mm 0.00 in0.0 mm
01:30 AM 52.7°F11.5°C 40.1°F4.5°C 62% 0.7 mph SW1.1 kmh SW 2.2 mph3.5 kmh 29.52 in999.7 mb 0.00 in0.0 mm 0.00 in0.0 mm 0.00 in0.0 mm
01:35 AM 52.3°F11.3°C 39.7°F4.3°C 62% 1.6 mph SW2.6 kmh SW 3.1 mph5.0 kmh 29.52 in999.7 mb 0.00 in0.0 mm 0.00 in0.0 mm 0.00 in0.0 mm
01:40 AM 51.8°F11.0°C 39.2°F4.0°C 62% Calm Calm 3.1 mph5.0 kmh 29.52 in999.7 mb 0.00 in0.0 mm 0.00 in0.0 mm 0.00 in0.0 mm
01:45 AM 51.3°F10.7°C 38.7°F3.7°C 62% Calm Calm 2.2 mph3.5 kmh 29.52 in999.7 mb 0.00 in0.0 mm 0.00 in0.0 mm 0.00 in0.0 mm
01:50 AM 50.9°F10.5°C 38.4°F3.6°C 62% 2.2 mph SW3.5 kmh SW 3.1 mph5.0 kmh 29.53 in1000.0 mb 0.00 in0.0 mm 0.00 in0.0 mm 0.00 in0.0 mm
01:55 AM 50.7°F10.4°C 38.2°F3.4°C 62% 0.7 mph SW1.1 kmh SW 3.1 mph5.0 kmh 29.54 in1000.3 mb 0.00 in0.0 mm 0.00 in0.0 mm 0.00 in0.0 mm
02:00 AM 50.5°F10.3°C 38.0°F3.3°C 62% Calm Calm 3.1 mph5.0 kmh 29.53 in1000.0 mb 0.00 in0.0 mm 0.00 in0.0 mm 0.00 in0.0 mm
02:05 AM 50.2°F10.1°C 37.7°F3.2°C 62% 1.6 mph SW2.6 kmh SW 2.2 mph3.5 kmh 29.54 in1000.3 mb 0.00 in0.0 mm 0.00 in0.0 mm 0.00 in0.0 mm
02:10 AM 50.0°F10.0°C 37.5°F3.1°C 62% Calm Calm 2.2 mph3.5 kmh 29.54 in1000.3 mb 0.00 in0.0 mm 0.00 in0.0 mm 0.00 in0.0 mm
02:15 AM 49.8°F9.9°C 37.3°F2.9°C 62% Calm Calm 2.2 mph3.5 kmh 29.54 in1000.3 mb 0.00 in0.0 mm 0.00 in0.0 mm 0.00 in0.0 mm
02:20 AM 49.8°F9.9°C 37.3°F2.9°C 62% 1.6 mph SW2.6 kmh SW 3.8 mph6.1 kmh 29.54 in1000.3 mb 0.00 in0.0 mm 0.00 in0.0 mm 0.00 in0.0 mm
02:25 AM 49.3°F9.6°C 36.8°F2.7°C 62% 0.7 mph SW1.1 kmh SW 3.8 mph6.1 kmh 29.54 in1000.3 mb 0.00 in0.0 mm 0.00 in0.0 mm 0.00 in0.0 mm
02:30 AM 49.1°F9.5°C 36.7°F2.6°C 62% Calm Calm 3.8 mph6.1 kmh 29.54 in1000.3 mb 0.00 in0.0 mm 0.00 in0.0 mm 0.00 in0.0 mm
02:35 AM 49.1°F9.5°C 36.7°F2.6°C 62% Calm Calm 3.8 mph6.1 kmh 29.54 in1000.3 mb 0.00 in0.0 mm 0.00 in0.0 mm 0.00 in0.0 mm
02:40 AM 49.1°F9.5°C 36.7°F2.6°C 62% Calm Calm 2.2 mph3.5 kmh 29.54 in1000.3 mb 0.00 in0.0 mm 0.00 in0.0 mm 0.00 in0.0 mm
02:45 AM 49.1°F9.5°C 36.7°F2.6°C 62% 0.7 mph SW1.1 kmh SW 3.1 mph5.0 kmh 29.54 in1000.3 mb 0.00 in0.0 mm 0.00 in0.0 mm 0.00 in0.0 mm
02:50 AM 48.7°F9.3°C 36.3°F2.4°C 62% 1.6 mph SW2.6 kmh SW 3.8 mph6.1 kmh 29.54 in1000.3 mb 0.00 in0.0 mm 0.00 in0.0 mm 0.00 in0.0 mm
02:55 AM 48.4°F9.1°C 36.0°F2.2°C 62% 1.6 mph SW2.6 kmh SW 3.8 mph6.1 kmh 29.54 in1000.3 mb 0.00 in0.0 mm 0.00 in0.0 mm 0.00 in0.0 mm
03:00 AM 48.2°F9.0°C 35.8°F2.1°C 62% 2.2 mph SW3.5 kmh SW 3.8 mph6.1 kmh 29.55 in1000.7 mb 0.00 in0.0 mm 0.00 in0.0 mm 0.00 in0.0 mm
03:05 AM 47.8°F8.8°C 35.5°F1.9°C 62% Calm Calm 3.8 mph6.1 kmh 29.55 in1000.7 mb 0.00 in0.0 mm 0.00 in0.0 mm 0.00 in0.0 mm
03:10 AM 47.8°F8.8°C 35.5°F1.9°C 62% Calm Calm 3.1 mph5.0 kmh 29.56 in1001.0 mb 0.00 in0.0 mm 0.00 in0.0 mm 0.00 in0.0 mm
03:15 AM 48.0°F8.9°C 35.6°F2.0°C 62% Calm Calm 1.6 mph2.6 kmh 29.56 in1001.0 mb 0.00 in0.0 mm 0.00 in0.0 mm 0.00 in0.0 mm
03:20 AM 48.0°F8.9°C 35.6°F2.0°C 62% 1.6 mph SW2.6 kmh SW 2.2 mph3.5 kmh 29.56 in1001.0 mb 0.00 in0.0 mm 0.00 in0.0 mm 0.00 in0.0 mm
03:25 AM 48.2°F9.0°C 35.8°F2.1°C 62% 2.2 mph SW3.5 kmh SW 3.1 mph5.0 kmh 29.57 in1001.4 mb 0.00 in0.0 mm 0.00 in0.0 mm 0.00 in0.0 mm
03:30 AM 48.0°F8.9°C 35.6°F2.0°C 62% Calm Calm 6.0 mph9.7 kmh 29.56 in1001.0 mb 0.00 in0.0 mm 0.00 in0.0 mm 0.00 in0.0 mm
03:35 AM 47.8°F8.8°C 35.5°F1.9°C 62% 1.6 mph SW2.6 kmh SW 6.0 mph9.7 kmh 29.57 in1001.4 mb 0.00 in0.0 mm 0.00 in0.0 mm 0.00 in0.0 mm
03:40 AM 47.8°F8.8°C 35.5°F1.9°C 62% 0.7 mph SW1.1 kmh SW 3.1 mph5.0 kmh 29.57 in1001.4 mb 0.00 in0.0 mm 0.00 in0.0 mm 0.00 in0.0 mm
03:45 AM 47.5°F8.6°C 35.1°F1.7°C 62% Calm Calm 3.1 mph5.0 kmh 29.57 in1001.4 mb 0.00 in0.0 mm 0.00 in0.0 mm 0.00 in0.0 mm
03:50 AM 47.5°F8.6°C 35.1°F1.7°C 62% 0.7 mph SW1.1 kmh SW 2.2 mph3.5 kmh 29.58 in1001.7 mb 0.00 in0.0 mm 0.00 in0.0 mm 0.00 in0.0 mm
03:55 AM 47.1°F8.4°C 34.8°F1.6°C 62% 0.7 mph SW1.1 kmh SW 2.2 mph3.5 kmh 29.57 in1001.4 mb 0.00 in0.0 mm 0.00 in0.0 mm 0.00 in0.0 mm
04:00 AM 47.3°F8.5°C 35.0°F1.7°C 62% 0.7 mph SW1.1 kmh SW 2.2 mph3.5 kmh 29.58 in1001.7 mb 0.00 in0.0 mm 0.00 in0.0 mm 0.00 in0.0 mm
04:05 AM 47.1°F8.4°C 34.8°F1.6°C 62% 1.6 mph SW2.6 kmh SW 2.2 mph3.5 kmh 29.58 in1001.7 mb 0.00 in0.0 mm 0.00 in0.0 mm 0.00 in0.0 mm
04:10 AM 47.3°F8.5°C 35.0°F1.7°C 62% Calm Calm 2.2 mph3.5 kmh 29.58 in1001.7 mb 0.00 in0.0 mm 0.00 in0.0 mm 0.00 in0.0 mm
04:15 AM 47.1°F8.4°C 34.8°F1.6°C 62% 2.2 mph SW3.5 kmh SW 3.1 mph5.0 kmh 29.58 in1001.7 mb 0.00 in0.0 mm 0.00 in0.0 mm 0.00 in0.0 mm
04:20 AM 46.8°F8.2°C 34.4°F1.3°C 62% Calm Calm 3.8 mph6.1 kmh 29.58 in1001.7 mb 0.00 in0.0 mm 0.00 in0.0 mm 0.00 in0.0 mm
04:25 AM 46.8°F8.2°C 34.4°F1.3°C 62% Calm Calm 3.8 mph6.1 kmh 29.58 in1001.7 mb 0.00 in0.0 mm 0.00 in0.0 mm 0.00 in0.0 mm
04:30 AM 46.8°F8.2°C 34.4°F1.3°C 62% 2.2 mph SW3.5 kmh SW 3.8 mph6.1 kmh 29.58 in1001.7 mb 0.00 in0.0 mm 0.00 in0.0 mm 0.00 in0.0 mm
04:35 AM 46.4°F8.0°C 34.1°F1.2°C 62% 2.2 mph SW3.5 kmh SW 3.8 mph6.1 kmh 29.59 in1002.0 mb 0.00 in0.0 mm 0.00 in0.0 mm 0.00 in0.0 mm
04:40 AM 46.0°F7.8°C 33.8°F1.0°C 62% Calm Calm 3.8 mph6.1 kmh 29.58 in1001.7 mb 0.00 in0.0 mm 0.00 in0.0 mm 0.00 in0.0 mm
04:45 AM 46.0°F7.8°C 33.8°F1.0°C 62% Calm Calm 3.8 mph6.1 kmh 29.59 in1002.0 mb 0.00 in0.0 mm 0.00 in0.0 mm 0.00 in0.0 mm
04:50 AM 46.2°F7.9°C 33.9°F1.1°C 62% Calm Calm 3.1 mph5.0 kmh 29.59 in1002.0 mb 0.00 in0.0 mm 0.00 in0.0 mm 0.00 in0.0 mm
04:55 AM 46.0°F7.8°C 33.8°F1.0°C 62% 0.7 mph SW1.1 kmh SW 2.2 mph3.5 kmh 29.59 in1002.0 mb 0.00 in0.0 mm 0.00 in0.0 mm 0.00 in0.0 mm
05:00 AM 46.2°F7.9°C 33.9°F1.1°C 62% 1.6 mph SW2.6 kmh SW 2.2 mph3.5 kmh 29.59 in1002.0 mb 0.00 in0.0 mm 0.00 in0.0 mm 0.00 in0.0 mm
05:05 AM 45.9°F7.7°C 33.6°F0.9°C 62% 1.6 mph SW2.6 kmh SW 2.2 mph3.5 kmh 29.59 in1002.0 mb 0.00 in0.0 mm 0.00 in0.0 mm 0.00 in0.0 mm
05:10 AM 45.5°F7.5°C 33.2°F0.7°C 62% 0.7 mph SW1.1 kmh SW 2.2 mph3.5 kmh 29.60 in1002.4 mb 0.00 in0.0 mm 0.00 in0.0 mm 0.00 in0.0 mm
05:15 AM 45.5°F7.5°C 33.2°F0.7°C 62% 2.2 mph SW3.5 kmh SW 3.1 mph5.0 kmh 29.60 in1002.4 mb 0.00 in0.0 mm 0.00 in0.0 mm 0.00 in0.0 mm
05:20 AM 45.5°F7.5°C 33.2°F0.7°C 62% Calm Calm 3.8 mph6.1 kmh 29.60 in1002.4 mb 0.00 in0.0 mm 0.00 in0.0 mm 0.00 in0.0 mm
05:25 AM 45.3°F7.4°C 33.1°F0.6°C 62% Calm Calm 3.8 mph6.1 kmh 29.60 in1002.4 mb 0.00 in0.0 mm 0.00 in0.0 mm 0.00 in0.0 mm
05:30 AM 45.5°F7.5°C 33.2°F0.7°C 62% Calm Calm 3.8 mph6.1 kmh 29.60 in1002.4 mb 0.00 in0.0 mm 0.00 in0.0 mm 0.00 in0.0 mm
05:35 AM 45.9°F7.7°C 33.6°F0.9°C 62% Calm Calm 3.8 mph6.1 kmh 29.60 in1002.4 mb 0.00 in0.0 mm 0.00 in0.0 mm 0.00 in0.0 mm
05:40 AM 46.0°F7.8°C 33.8°F1.0°C 62% 1.6 mph SW2.6 kmh SW 3.8 mph6.1 kmh 29.60 in1002.4 mb 0.00 in0.0 mm 0.00 in0.0 mm 0.00 in0.0 mm
05:45 AM 46.2°F7.9°C 33.9°F1.1°C 62% 0.7 mph SW1.1 kmh SW 3.1 mph5.0 kmh 29.61 in1002.7 mb 0.00 in0.0 mm 0.00 in0.0 mm 0.00 in0.0 mm
05:50 AM 46.6°F8.1°C 34.3°F1.3°C 62% 3.1 mph SW5.0 kmh SW 4.5 mph7.2 kmh 29.61 in1002.7 mb 0.00 in0.0 mm 0.00 in0.0 mm 0.00 in0.0 mm
05:55 AM 46.8°F8.2°C 34.4°F1.3°C 62% 0.7 mph SW1.1 kmh SW 4.5 mph7.2 kmh 29.61 in1002.7 mb 0.00 in0.0 mm 0.00 in0.0 mm 0.00 in0.0 mm
06:00 AM 46.9°F8.3°C 34.6°F1.4°C 62% Calm Calm 4.5 mph7.2 kmh 29.61 in1002.7 mb 0.00 in0.0 mm 0.00 in0.0 mm 0.00 in0.0 mm
06:05 AM 46.9°F8.3°C 34.6°F1.4°C 62% 0.7 mph SW1.1 kmh SW 3.1 mph5.0 kmh 29.61 in1002.7 mb 0.00 in0.0 mm 0.00 in0.0 mm 0.00 in0.0 mm
06:10 AM 47.1°F8.4°C 34.8°F1.6°C 62% 0.7 mph SW1.1 kmh SW 3.1 mph5.0 kmh 29.61 in1002.7 mb 0.00 in0.0 mm 0.00 in0.0 mm 0.00 in0.0 mm
06:15 AM 47.3°F8.5°C 35.0°F1.7°C 62% Calm Calm 2.2 mph3.5 kmh 29.61 in1002.7 mb 0.00 in0.0 mm 0.00 in0.0 mm 0.00 in0.0 mm
06:20 AM 47.3°F8.5°C 35.0°F1.7°C 62% Calm Calm 2.2 mph3.5 kmh 29.61 in1002.7 mb 0.00 in0.0 mm 0.00 in0.0 mm 0.00 in0.0 mm
06:25 AM 47.3°F8.5°C 35.0°F1.7°C 62% 0.7 mph SW1.1 kmh SW 2.2 mph3.5 kmh 29.61 in1002.7 mb 0.00 in0.0 mm 0.00 in0.0 mm 0.00 in0.0 mm
06:30 AM 47.3°F8.5°C 35.0°F1.7°C 62% Calm Calm 2.2 mph3.5 kmh 29.61 in1002.7 mb 0.00 in0.0 mm 0.00 in0.0 mm 0.00 in0.0 mm
06:35 AM 47.7°F8.7°C 35.3°F1.8°C 62% 0.7 mph SW1.1 kmh SW 2.2 mph3.5 kmh 29.62 in1003.0 mb 0.00 in0.0 mm 0.00 in0.0 mm 0.00 in0.0 mm
06:40 AM 47.8°F8.8°C 35.5°F1.9°C 62% 0.7 mph SW1.1 kmh SW 2.2 mph3.5 kmh 29.61 in1002.7 mb 0.00 in0.0 mm 0.00 in0.0 mm 0.00 in0.0 mm
06:45 AM 47.8°F8.8°C 35.5°F1.9°C 62% Calm Calm 1.6 mph2.6 kmh 29.61 in1002.7 mb 0.00 in0.0 mm 0.00 in0.0 mm 0.00 in0.0 mm
06:50 AM 48.2°F9.0°C 35.8°F2.1°C 62% Calm Calm 1.6 mph2.6 kmh 29.61 in1002.7 mb 0.00 in0.0 mm 0.00 in0.0 mm 0.00 in0.0 mm
06:55 AM 48.6°F9.2°C 36.1°F2.3°C 62% Calm Calm 1.6 mph2.6 kmh 29.62 in1003.0 mb 0.00 in0.0 mm 0.00 in0.0 mm 0.00 in0.0 mm
07:00 AM 49.1°F9.5°C 36.7°F2.6°C 62% Calm Calm 1.6 mph2.6 kmh 29.61 in1002.7 mb 0.00 in0.0 mm 0.00 in0.0 mm 0.00 in0.0 mm
07:05 AM 51.8°F11.0°C 39.2°F4.0°C 62% 0.7 mph SW1.1 kmh SW 3.1 mph5.0 kmh 29.62 in1003.0 mb 0.00 in0.0 mm 0.00 in0.0 mm 0.00 in0.0 mm
07:10 AM 52.7°F11.5°C 40.1°F4.5°C 62% 0.7 mph SW1.1 kmh SW 3.1 mph5.0 kmh 29.62 in1003.0 mb 0.00 in0.0 mm 0.00 in0.0 mm 0.00 in0.0 mm
07:15 AM 52.7°F11.5°C 40.1°F4.5°C 62% Calm Calm 3.1 mph5.0 kmh 29.63 in1003.4 mb 0.00 in0.0 mm 0.00 in0.0 mm 0.00 in0.0 mm
07:20 AM 53.6°F12.0°C 40.9°F4.9°C 62% 0.7 mph SW1.1 kmh SW 2.2 mph3.5 kmh 29.62 in1003.0 mb 0.00 in0.0 mm 0.00 in0.0 mm 0.00 in0.0 mm
07:25 AM 54.0°F12.2°C 41.2°F5.1°C 62% 0.7 mph SW1.1 kmh SW 3.1 mph5.0 kmh 29.62 in1003.0 mb 0.00 in0.0 mm 0.00 in0.0 mm 0.00 in0.0 mm
07:30 AM 54.1°F12.3°C 41.4°F5.2°C 62% 0.7 mph SW1.1 kmh SW 3.1 mph5.0 kmh 29.62 in1003.0 mb 0.00 in0.0 mm 0.00 in0.0 mm 0.00 in0.0 mm
07:35 AM 54.5°F12.5°C 41.8°F5.4°C 62% 1.6 mph SW2.6 kmh SW 3.1 mph5.0 kmh 29.62 in1003.0 mb 0.00 in0.0 mm 0.00 in0.0 mm 0.00 in0.0 mm
07:40 AM 54.5°F12.5°C 41.8°F5.4°C 62% 0.7 mph SW1.1 kmh SW 3.1 mph5.0 kmh 29.63 in1003.4 mb 0.00 in0.0 mm 0.00 in0.0 mm 0.00 in0.0 mm
07:45 AM 54.1°F12.3°C 41.4°F5.2°C 62% Calm Calm 3.1 mph5.0 kmh 29.62 in1003.0 mb 0.00 in0.0 mm 0.00 in0.0 mm 0.00 in0.0 mm
07:50 AM 54.1°F12.3°C 41.4°F5.2°C 62% Calm Calm 2.2 mph3.5 kmh 29.62 in1003.0 mb 0.00 in0.0 mm 0.00 in0.0 mm 0.00 in0.0 mm
07:55 AM 54.9°F12.7°C 42.1°F5.6°C 62% Calm Calm 1.6 mph2.6 kmh 29.63 in1003.4 mb 0.00 in0.0 mm 0.00 in0.0 mm 0.00 in0.0 mm
08:00 AM 55.9°F13.3°C 43.1°F6.2°C 62% 2.2 mph SW3.5 kmh SW 2.2 mph3.5 kmh 29.62 in1003.0 mb 0.00 in0.0 mm 0.00 in0.0 mm 0.00 in0.0 mm
08:05 AM 56.8°F13.8°C 44.0°F6.7°C 62% 1.6 mph SW2.6 kmh SW 2.2 mph3.5 kmh 29.62 in1003.0 mb 0.00 in0.0 mm 0.00 in0.0 mm 0.00 in0.0 mm
08:10 AM 57.2°F14.0°C 44.3°F6.8°C 62% 0.7 mph SW1.1 kmh SW 3.8 mph6.1 kmh 29.62 in1003.0 mb 0.00 in0.0 mm 0.00 in0.0 mm 0.00 in0.0 mm
08:15 AM 57.4°F14.1°C 44.5°F6.9°C 62% 1.6 mph SW2.6 kmh SW 3.8 mph6.1 kmh 29.62 in1003.0 mb 0.00 in0.0 mm 0.00 in0.0 mm 0.00 in0.0 mm
08:20 AM 57.9°F14.4°C 45.0°F7.2°C 62% Calm Calm 3.1 mph5.0 kmh 29.62 in1003.0 mb 0.00 in0.0 mm 0.00 in0.0 mm 0.00 in0.0 mm
08:25 AM 58.5°F14.7°C 45.5°F7.5°C 62% 1.6 mph SW2.6 kmh SW 3.1 mph5.0 kmh 29.62 in1003.0 mb 0.00 in0.0 mm 0.00 in0.0 mm 0.00 in0.0 mm
08:30 AM 58.5°F14.7°C 45.5°F7.5°C 62% 0.7 mph SW1.1 kmh SW 3.1 mph5.0 kmh 29.62 in1003.0 mb 0.00 in0.0 mm 0.00 in0.0 mm 0.00 in0.0 mm
08:35 AM 58.5°F14.7°C 45.5°F7.5°C 62% Calm Calm 2.2 mph3.5 kmh 29.61 in1002.7 mb 0.00 in0.0 mm 0.00 in0.0 mm 0.00 in0.0 mm
08:40 AM 59.0°F15.0°C 46.0°F7.8°C 62% 1.6 mph SW2.6 kmh SW 3.1 mph5.0 kmh 29.62 in1003.0 mb 0.00 in0.0 mm 0.00 in0.0 mm 0.00 in0.0 mm
08:45 AM 59.5°F15.3°C 46.5°F8.1°C 62% 0.7 mph SW1.1 kmh SW 3.1 mph5.0 kmh 29.62 in1003.0 mb 0.00 in0.0 mm 0.00 in0.0 mm 0.00 in0.0 mm
08:50 AM 59.7°F15.4°C 46.7°F8.2°C 62% 0.7 mph SW1.1 kmh SW 2.2 mph3.5 kmh 29.62 in1003.0 mb 0.00 in0.0 mm 0.00 in0.0 mm 0.00 in0.0 mm
08:55 AM 59.7°F15.4°C 46.7°F8.2°C 62% 0.7 mph SW1.1 kmh SW 2.2 mph3.5 kmh 29.61 in1002.7 mb 0.00 in0.0 mm 0.00 in0.0 mm 0.00 in0.0 mm
09:00 AM 59.7°F15.4°C 46.7°F8.2°C 62% 0.7 mph SW1.1 kmh SW 2.2 mph3.5 kmh 29.62 in1003.0 mb 0.00 in0.0 mm 0.00 in0.0 mm 0.00 in0.0 mm
09:05 AM 59.7°F15.4°C 46.7°F8.2°C 62% 0.7 mph SW1.1 kmh SW 2.2 mph3.5 kmh 29.61 in1002.7 mb 0.00 in0.0 mm 0.00 in0.0 mm 0.00 in0.0 mm
09:10 AM 59.7°F15.4°C 46.7°F8.2°C 62% 0.7 mph SW1.1 kmh SW 2.2 mph3.5 kmh 29.61 in1002.7 mb 0.00 in0.0 mm 0.00 in0.0 mm 0.00 in0.0 mm
09:15 AM 59.7°F15.4°C 46.7°F8.2°C 62% 0.7 mph SW1.1 kmh SW 2.2 mph3.5 kmh 29.61 in1002.7 mb 0.00 in0.0 mm 0.00 in0.0 mm 0.00 in0.0 mm
09:20 AM 59.7°F15.4°C 46.7°F8.2°C 62% 0.7 mph SW1.1 kmh SW 2.2 mph3.5 kmh 29.61 in1002.7 mb 0.00 in0.0 mm 0.00 in0.0 mm 0.00 in0.0 mm
09:25 AM 59.7°F15.4°C 46.7°F8.2°C 62% 0.7 mph SW1.1 kmh SW 2.2 mph3.5 kmh 29.61 in1002.7 mb 0.00 in0.0 mm 0.00 in0.0 mm 0.00 in0.0 mm
09:30 AM 61.9°F16.6°C 48.7°F9.3°C 62% 0.7 mph SW1.1 kmh SW 1.6 mph2.6 kmh 29.61 in1002.7 mb 0.00 in0.0 mm 0.00 in0.0 mm 0.00 in0.0 mm
09:35 AM 61.9°F16.6°C 48.7°F9.3°C 62% 0.7 mph SW1.1 kmh SW 1.6 mph2.6 kmh 29.61 in1002.7 mb 0.00 in0.0 mm 0.00 in0.0 mm 0.00 in0.0 mm
09:40 AM 61.9°F16.6°C 48.7°F9.3°C 62% 0.7 mph SW1.1 kmh SW 1.6 mph2.6 kmh 29.61 in1002.7 mb 0.00 in0.0 mm 0.00 in0.0 mm 0.00 in0.0 mm
09:45 AM 61.9°F16.6°C 48.7°F9.3°C 62% 0.7 mph SW1.1 kmh SW 1.6 mph2.6 kmh 29.60 in1002.4 mb 0.00 in0.0 mm 0.00 in0.0 mm 0.00 in0.0 mm
09:50 AM 61.9°F16.6°C 48.7°F9.3°C 62% 0.7 mph SW1.1 kmh SW 1.6 mph2.6 kmh 29.60 in1002.4 mb 0.00 in0.0 mm 0.00 in0.0 mm 0.00 in0.0 mm
09:55 AM 67.1°F19.5°C 53.7°F12.1°C 62% 3.1 mph SW5.0 kmh SW 4.5 mph7.2 kmh 29.60 in1002.4 mb 0.00 in0.0 mm 0.00 in0.0 mm 0.00 in0.0 mm
10:00 AM 67.5°F19.7°C 54.0°F12.2°C 62% 0.7 mph SW1.1 kmh SW 4.5 mph7.2 kmh 29.60 in1002.4 mb 0.00 in0.0 mm 0.00 in0.0 mm 0.00 in0.0 mm
10:05 AM 67.5°F19.7°C 54.0°F12.2°C 62% 1.6 mph SW2.6 kmh SW 4.5 mph7.2 kmh 29.60 in1002.4 mb 0.00 in0.0 mm 0.00 in0.0 mm 0.00 in0.0 mm
10:10 AM 67.6°F19.8°C 54.2°F12.3°C 62% 3.1 mph SW5.0 kmh SW 4.5 mph7.2 kmh 29.60 in1002.4 mb 0.00 in0.0 mm 0.00 in0.0 mm 0.00 in0.0 mm
10:15 AM 68.5°F20.3°C 55.0°F12.8°C 62% 3.8 mph SW6.1 kmh SW 6.0 mph9.7 kmh 29.60 in1002.4 mb 0.00 in0.0 mm 0.00 in0.0 mm 0.00 in0.0 mm
10:20 AM 68.9°F20.5°C 55.4°F13.0°C 62% 0.7 mph SW1.1 kmh SW 6.0 mph9.7 kmh 29.60 in1002.4 mb 0.00 in0.0 mm 0.00 in0.0 mm 0.00 in0.0 mm
10:25 AM 68.9°F20.5°C 55.4°F13.0°C 62% 1.6 mph SW2.6 kmh SW 6.0 mph9.7 kmh 29.59 in1002.0 mb 0.00 in0.0 mm 0.00 in0.0 mm 0.00 in0.0 mm
10:30 AM 69.1°F20.6°C 55.5°F13.1°C 62% 0.7 mph SW1.1 kmh SW 3.8 mph6.1 kmh 29.59 in1002.0 mb 0.00 in0.0 mm 0.00 in0.0 mm 0.00 in0.0 mm
10:35 AM 70.0°F21.1°C 56.4°F13.6°C 62% 0.7 mph SW1.1 kmh SW 4.5 mph7.2 kmh 29.59 in1002.0 mb 0.00 in0.0 mm 0.00 in0.0 mm 0.00 in0.0 mm
10:40 AM 69.4°F20.8°C 55.9°F13.3°C 62% 1.6 mph SW2.6 kmh SW 5.4 mph8.7 kmh 29.59 in1002.0 mb 0.00 in0.0 mm 0.00 in0.0 mm 0.00 in0.0 mm
10:45 AM 70.7°F21.5°C 57.1°F13.9°C 62% 0.7 mph SW1.1 kmh SW 6.0 mph9.7 kmh 29.58 in1001.7 mb 0.00 in0.0 mm 0.00 in0.0 mm 0.00 in0.0 mm
10:50 AM 72.3°F22.4°C 58.6°F14.8°C 62% 3.1 mph SW5.0 kmh SW 6.0 mph9.7 kmh 29.58 in1001.7 mb 0.00 in0.0 mm 0.00 in0.0 mm 0.00 in0.0 mm
10:55 AM 72.9°F22.7°C 59.1°F15.1°C 62% 5.4 mph SW8.7 kmh SW 7.6 mph12.2 kmh 29.58 in1001.7 mb 0.00 in0.0 mm 0.00 in0.0 mm 0.00 in0.0 mm
11:00 AM 73.2°F22.9°C 59.5°F15.3°C 62% 3.8 mph SW6.1 kmh SW 7.6 mph12.2 kmh 29.59 in1002.0 mb 0.00 in0.0 mm 0.00 in0.0 mm 0.00 in0.0 mm
11:05 AM 74.3°F23.5°C 60.5°F15.8°C 62% 5.4 mph SW8.7 kmh SW 7.6 mph12.2 kmh 29.58 in1001.7 mb 0.00 in0.0 mm 0.00 in0.0 mm 0.00 in0.0 mm
11:10 AM 76.5°F24.7°C 62.5°F16.9°C 62% 3.8 mph SW6.1 kmh SW 7.6 mph12.2 kmh 29.58 in1001.7 mb 0.00 in0.0 mm 0.00 in0.0 mm 0.00 in0.0 mm
11:15 AM 75.0°F23.9°C 61.2°F16.2°C 62% 3.8 mph SW6.1 kmh SW 7.6 mph12.2 kmh 29.57 in1001.4 mb 0.00 in0.0 mm 0.00 in0.0 mm 0.00 in0.0 mm
11:20 AM 73.9°F23.3°C 60.1°F15.6°C 62% 4.5 mph WSW7.2 kmh WSW 7.6 mph12.2 kmh 29.57 in1001.4 mb 0.00 in0.0 mm 0.00 in0.0 mm 0.00 in0.0 mm
11:25 AM 74.5°F23.6°C 60.6°F15.9°C 62% 3.1 mph WSW5.0 kmh WSW 6.0 mph9.7 kmh 29.57 in1001.4 mb 0.00 in0.0 mm 0.00 in0.0 mm 0.00 in0.0 mm
11:30 AM 74.7°F23.7°C 60.8°F16.0°C 62% 0.7 mph W1.1 kmh W 6.0 mph9.7 kmh 29.57 in1001.4 mb 0.00 in0.0 mm 0.00 in0.0 mm 0.00 in0.0 mm
11:35 AM 76.1°F24.5°C 62.2°F16.8°C 62% 2.2 mph NW3.5 kmh NW 7.6 mph12.2 kmh 29.56 in1001.0 mb 0.00 in0.0 mm 0.00 in0.0 mm 0.00 in0.0 mm
11:40 AM 75.7°F24.3°C 61.8°F16.6°C 62% 2.2 mph N3.5 kmh N 9.2 mph14.8 kmh 29.55 in1000.7 mb 0.00 in0.0 mm 0.00 in0.0 mm 0.00 in0.0 mm
11:45 AM 75.2°F24.0°C 61.3°F16.3°C 62% 3.8 mph NW6.1 kmh NW 9.2 mph14.8 kmh 29.56 in1001.0 mb 0.00 in0.0 mm 0.00 in0.0 mm 0.00 in0.0 mm
11:50 AM 75.6°F24.2°C 61.7°F16.5°C 62% 3.1 mph SW5.0 kmh SW 9.2 mph14.8 kmh 29.55 in1000.7 mb 0.00 in0.0 mm 0.00 in0.0 mm 0.00 in0.0 mm
11:55 AM 77.2°F25.1°C 63.2°F17.3°C 62% 2.2 mph SW3.5 kmh SW 8.3 mph13.4 kmh 29.54 in1000.3 mb 0.00 in0.0 mm 0.00 in0.0 mm 0.00 in0.0 mm
12:00 PM 78.3°F25.7°C 64.2°F17.9°C 62% 3.1 mph SW5.0 kmh SW 8.3 mph13.4 kmh 29.54 in1000.3 mb 0.00 in0.0 mm 0.00 in0.0 mm 0.00 in0.0 mm
12:05 PM 78.1°F25.6°C 64.0°F17.8°C 62% 2.2 mph WSW3.5 kmh WSW 8.3 mph13.4 kmh 29.54 in1000.3 mb 0.00 in0.0 mm 0.00 in0.0 mm 0.00 in0.0 mm
12:10 PM 76.8°F24.9°C 62.9°F17.2°C 62% 4.5 mph WSW7.2 kmh WSW 8.3 mph13.4 kmh 29.54 in1000.3 mb 0.00 in0.0 mm 0.00 in0.0 mm 0.00 in0.0 mm
12:15 PM 77.5°F25.3°C 63.5°F17.5°C 62% 6.9 mph W11.1 kmh W 11.4 mph18.3 kmh 29.54 in1000.3 mb 0.00 in0.0 mm 0.00 in0.0 mm 0.00 in0.0 mm
12:20 PM 76.5°F24.7°C 62.5°F16.9°C 62% 3.1 mph WSW5.0 kmh WSW 11.4 mph18.3 kmh 29.54 in1000.3 mb 0.00 in0.0 mm 0.00 in0.0 mm 0.00 in0.0 mm
12:25 PM 77.4°F25.2°C 63.4°F17.4°C 62% 3.8 mph SW6.1 kmh SW 12.1 mph19.5 kmh 29.54 in1000.3 mb 0.00 in0.0 mm 0.00 in0.0 mm 0.00 in0.0 mm
12:30 PM 78.1°F25.6°C 64.0°F17.8°C 62% 2.2 mph WSW3.5 kmh WSW 12.1 mph19.5 kmh 29.54 in1000.3 mb 0.00 in0.0 mm 0.00 in0.0 mm 0.00 in0.0 mm
12:35 PM 78.3°F25.7°C 64.2°F17.9°C 62% 3.1 mph WSW5.0 kmh WSW 11.4 mph18.3 kmh 29.54 in1000.3 mb 0.00 in0.0 mm 0.00 in0.0 mm 0.00 in0.0 mm
12:40 PM 78.1°F25.6°C 64.0°F17.8°C 62% 4.5 mph SW7.2 kmh SW 15.2 mph24.5 kmh 29.53 in1000.0 mb 0.00 in0.0 mm 0.00 in0.0 mm 0.00 in0.0 mm
12:45 PM 75.7°F24.3°C 61.8°F16.6°C 62% 4.5 mph WSW7.2 kmh WSW 15.2 mph24.5 kmh 29.53 in1000.0 mb 0.00 in0.0 mm 0.00 in0.0 mm 0.00 in0.0 mm
12:50 PM 75.6°F24.2°C 61.7°F16.5°C 62% 4.5 mph W7.2 kmh W 11.4 mph18.3 kmh 29.53 in1000.0 mb 0.00 in0.0 mm 0.00 in0.0 mm 0.00 in0.0 mm
12:55 PM 75.9°F24.4°C 62.0°F16.7°C 62% 2.2 mph WSW3.5 kmh WSW 13.6 mph21.9 kmh 29.52 in999.7 mb 0.00 in0.0 mm 0.00 in0.0 mm 0.00 in0.0 mm
01:00 PM 76.6°F24.8°C 62.7°F17.1°C 62% 8.3 mph SSW13.4 kmh SSW 17.4 mph28.0 kmh 29.52 in999.7 mb 0.00 in0.0 mm 0.00 in0.0 mm 0.00 in0.0 mm
01:05 PM 77.0°F25.0°C 63.0°F17.2°C 62% 6.9 mph S11.1 kmh S 17.4 mph28.0 kmh 29.51 in999.3 mb 0.00 in0.0 mm 0.00 in0.0 mm 0.00 in0.0 mm
01:10 PM 77.4°F25.2°C 63.4°F17.4°C 62% 3.8 mph SSE6.1 kmh SSE 10.7 mph17.2 kmh 29.51 in999.3 mb 0.00 in0.0 mm 0.00 in0.0 mm 0.00 in0.0 mm
01:15 PM 77.2°F25.1°C 63.2°F17.3°C 62% 8.3 mph E13.4 kmh E 14.5 mph23.3 kmh 29.51 in999.3 mb 0.00 in0.0 mm 0.00 in0.0 mm 0.00 in0.0 mm
01:20 PM 77.2°F25.1°C 63.2°F17.3°C 62% 8.3 mph ENE13.4 kmh ENE 20.6 mph33.2 kmh 29.51 in999.3 mb 0.00 in0.0 mm 0.00 in0.0 mm 0.00 in0.0 mm
01:25 PM 77.0°F25.0°C 63.0°F17.2°C 62% 5.4 mph NE8.7 kmh NE 20.6 mph33.2 kmh 29.51 in999.3 mb 0.00 in0.0 mm 0.00 in0.0 mm 0.00 in0.0 mm
01:30 PM 75.7°F24.3°C 61.8°F16.6°C 62% 6.0 mph ENE9.7 kmh ENE 13.6 mph21.9 kmh 29.51 in999.3 mb 0.00 in0.0 mm 0.00 in0.0 mm 0.00 in0.0 mm
01:35 PM 74.5°F23.6°C 60.6°F15.9°C 62% 6.0 mph E9.7 kmh E 16.8 mph27.0 kmh 29.51 in999.3 mb 0.00 in0.0 mm 0.00 in0.0 mm 0.00 in0.0 mm
01:40 PM 74.1°F23.4°C 60.3°F15.7°C 62% 3.8 mph E6.1 kmh E 16.8 mph27.0 kmh 29.50 in999.0 mb 0.00 in0.0 mm 0.00 in0.0 mm 0.00 in0.0 mm
01:45 PM 74.1°F23.4°C 60.3°F15.7°C 62% 5.4 mph E8.7 kmh E 12.1 mph19.5 kmh 29.50 in999.0 mb 0.00 in0.0 mm 0.00 in0.0 mm 0.00 in0.0 mm
01:50 PM 74.1°F23.4°C 60.3°F15.7°C 62% 6.0 mph ESE9.7 kmh ESE 11.4 mph18.3 kmh 29.49 in998.6 mb 0.00 in0.0 mm 0.00 in0.0 mm 0.00 in0.0 mm
01:55 PM 74.5°F23.6°C 60.6°F15.9°C 62% 6.0 mph SE9.7 kmh SE 11.4 mph18.3 kmh 29.49 in998.6 mb 0.00 in0.0 mm 0.00 in0.0 mm 0.00 in0.0 mm
02:00 PM 74.1°F23.4°C 60.3°F15.7°C 62% 5.4 mph E8.7 kmh E 9.8 mph15.8 kmh 29.49 in998.6 mb 0.00 in0.0 mm 0.00 in0.0 mm 0.00 in0.0 mm
02:05 PM 75.6°F24.2°C 61.7°F16.5°C 62% 6.0 mph E9.7 kmh E 10.7 mph17.2 kmh 29.48 in998.3 mb 0.00 in0.0 mm 0.00 in0.0 mm 0.00 in0.0 mm
02:10 PM 76.1°F24.5°C 62.2°F16.8°C 62% 6.0 mph E9.7 kmh E 12.1 mph19.5 kmh 29.49 in998.6 mb 0.00 in0.0 mm 0.00 in0.0 mm 0.00 in0.0 mm
02:15 PM 77.0°F25.0°C 63.0°F17.2°C 62% 5.4 mph E8.7 kmh E 12.1 mph19.5 kmh 29.48 in998.3 mb 0.00 in0.0 mm 0.00 in0.0 mm 0.00 in0.0 mm
02:20 PM 77.9°F25.5°C 63.9°F17.7°C 62% 7.6 mph ESE12.2 kmh ESE 15.2 mph24.5 kmh 29.48 in998.3 mb 0.00 in0.0 mm 0.00 in0.0 mm 0.00 in0.0 mm
02:25 PM 78.1°F25.6°C 64.0°F17.8°C 62% 4.5 mph ESE7.2 kmh ESE 16.8 mph27.0 kmh 29.47 in998.0 mb 0.00 in0.0 mm 0.00 in0.0 mm 0.00 in0.0 mm
02:30 PM 79.5°F26.4°C 65.4°F18.6°C 62% 4.5 mph ESE7.2 kmh ESE 16.8 mph27.0 kmh 29.47 in998.0 mb 0.00 in0.0 mm 0.00 in0.0 mm 0.00 in0.0 mm
02:35 PM 79.9°F26.6°C 65.7°F18.7°C 62% 4.5 mph SE7.2 kmh SE 11.4 mph18.3 kmh 29.47 in998.0 mb 0.00 in0.0 mm 0.00 in0.0 mm 0.00 in0.0 mm
02:40 PM 80.6°F27.0°C 66.4°F19.1°C 62% 5.4 mph ESE8.7 kmh ESE 11.4 mph18.3 kmh 29.46 in997.6 mb 0.00 in0.0 mm 0.00 in0.0 mm 0.00 in0.0 mm
02:45 PM 79.5°F26.4°C 65.4°F18.6°C 62% 2.2 mph E3.5 kmh E 13.0 mph20.9 kmh 29.46 in997.6 mb 0.00 in0.0 mm 0.00 in0.0 mm 0.00 in0.0 mm
02:50 PM 78.8°F26.0°C 64.7°F18.2°C 62% 2.2 mph E3.5 kmh E 13.0 mph20.9 kmh 29.46 in997.6 mb 0.00 in0.0 mm 0.00 in0.0 mm 0.00 in0.0 mm
02:55 PM 80.1°F26.7°C 65.9°F18.8°C 62% 3.8 mph NE6.1 kmh NE 9.8 mph15.8 kmh 29.46 in997.6 mb 0.00 in0.0 mm 0.00 in0.0 mm 0.00 in0.0 mm
03:00 PM 80.1°F26.7°C 65.9°F18.8°C 62% 5.4 mph NE8.7 kmh NE 13.6 mph21.9 kmh 29.45 in997.3 mb 0.00 in0.0 mm 0.00 in0.0 mm 0.00 in0.0 mm
03:05 PM 80.6°F27.0°C 66.4°F19.1°C 62% 6.0 mph ENE9.7 kmh ENE 13.6 mph21.9 kmh 29.45 in997.3 mb 0.00 in0.0 mm 0.00 in0.0 mm 0.00 in0.0 mm
03:10 PM 81.0°F27.2°C 66.8°F19.3°C 62% 9.2 mph ENE14.8 kmh ENE 13.0 mph20.9 kmh 29.45 in997.3 mb 0.00 in0.0 mm 0.00 in0.0 mm 0.00 in0.0 mm
03:15 PM 81.1°F27.3°C 66.9°F19.4°C 62% 6.9 mph ENE11.1 kmh ENE 13.0 mph20.9 kmh 29.45 in997.3 mb 0.00 in0.0 mm 0.00 in0.0 mm 0.00 in0.0 mm
03:20 PM 81.5°F27.5°C 67.3°F19.6°C 62% 9.8 mph ENE15.8 kmh ENE 14.5 mph23.3 kmh 29.45 in997.3 mb 0.00 in0.0 mm 0.00 in0.0 mm 0.00 in0.0 mm
03:25 PM 81.5°F27.5°C 67.3°F19.6°C 62% 7.6 mph NE12.2 kmh NE 20.6 mph33.2 kmh 29.44 in997.0 mb 0.00 in0.0 mm 0.00 in0.0 mm 0.00 in0.0 mm
03:30 PM 81.0°F27.2°C 66.8°F19.3°C 62% 9.2 mph ENE14.8 kmh ENE 20.6 mph33.2 kmh 29.44 in997.0 mb 0.00 in0.0 mm 0.00 in0.0 mm 0.00 in0.0 mm
03:35 PM 80.6°F27.0°C 66.4°F19.1°C 62% 8.3 mph E13.4 kmh E 17.4 mph28.0 kmh 29.44 in997.0 mb 0.00 in0.0 mm 0.00 in0.0 mm 0.00 in0.0 mm
03:40 PM 81.5°F27.5°C 67.3°F19.6°C 62% 7.6 mph E12.2 kmh E 17.4 mph28.0 kmh 29.44 in997.0 mb 0.00 in0.0 mm 0.00 in0.0 mm 0.00 in0.0 mm
03:45 PM 82.9°F28.3°C 68.6°F20.3°C 62% 3.8 mph E6.1 kmh E 15.2 mph24.5 kmh 29.44 in997.0 mb 0.00 in0.0 mm 0.00 in0.0 mm 0.00 in0.0 mm
03:50 PM 83.1°F28.4°C 68.8°F20.4°C 62% 6.0 mph E9.7 kmh E 15.2 mph24.5 kmh 29.43 in996.6 mb 0.00 in0.0 mm 0.00 in0.0 mm 0.00 in0.0 mm
03:55 PM 83.1°F28.4°C 68.8°F20.4°C 62% 4.5 mph E7.2 kmh E 15.2 mph24.5 kmh 29.43 in996.6 mb 0.00 in0.0 mm 0.00 in0.0 mm 0.00 in0.0 mm
04:00 PM 83.7°F28.7°C 69.3°F20.7°C 62% 9.2 mph E14.8 kmh E 16.8 mph27.0 kmh 29.43 in996.6 mb 0.00 in0.0 mm 0.00 in0.0 mm 0.00 in0.0 mm
04:05 PM 82.0°F27.8°C 67.8°F19.9°C 62% 10.7 mph E17.2 kmh E 19.0 mph30.6 kmh 29.43 in996.6 mb 0.00 in0.0 mm 0.00 in0.0 mm 0.00 in0.0 mm
04:10 PM 82.6°F28.1°C 68.3°F20.2°C 62% 6.0 mph E9.7 kmh E 19.0 mph30.6 kmh 29.42 in996.3 mb 0.00 in0.0 mm 0.00 in0.0 mm 0.00 in0.0 mm
04:15 PM 83.1°F28.4°C 68.8°F20.4°C 62% 7.6 mph E12.2 kmh E 15.9 mph25.6 kmh 29.43 in996.6 mb 0.00 in0.0 mm 0.00 in0.0 mm 0.00 in0.0 mm
04:20 PM 82.8°F28.2°C 68.5°F20.3°C 62% 4.5 mph E7.2 kmh E 15.9 mph25.6 kmh 29.42 in996.3 mb 0.00 in0.0 mm 0.00 in0.0 mm 0.00 in0.0 mm
04:25 PM 83.3°F28.5°C 69.0°F20.6°C 62% 4.5 mph ENE7.2 kmh ENE 15.9 mph25.6 kmh 29.42 in996.3 mb 0.00 in0.0 mm 0.00 in0.0 mm 0.00 in0.0 mm
04:30 PM 83.7°F28.7°C 69.3°F20.7°C 62% 1.6 mph ENE2.6 kmh ENE 13.0 mph20.9 kmh 29.42 in996.3 mb 0.00 in0.0 mm 0.00 in0.0 mm 0.00 in0.0 mm
04:35 PM 83.3°F28.5°C 69.0°F20.6°C 62% 3.8 mph E6.1 kmh E 10.7 mph17.2 kmh 29.42 in996.3 mb 0.00 in0.0 mm 0.00 in0.0 mm 0.00 in0.0 mm
04:40 PM 83.1°F28.4°C 68.8°F20.4°C 62% 6.0 mph E9.7 kmh E 12.1 mph19.5 kmh 29.41 in995.9 mb 0.00 in0.0 mm 0.00 in0.0 mm 0.00 in0.0 mm
04:45 PM 83.1°F28.4°C 68.8°F20.4°C 62% 6.9 mph NE11.1 kmh NE 14.5 mph23.3 kmh 29.42 in996.3 mb 0.00 in0.0 mm 0.00 in0.0 mm 0.00 in0.0 mm
04:50 PM 82.8°F28.2°C 68.5°F20.3°C 62% 2.2 mph N3.5 kmh N 15.2 mph24.5 kmh 29.41 in995.9 mb 0.00 in0.0 mm 0.00 in0.0 mm 0.00 in0.0 mm
04:55 PM 83.1°F28.4°C 68.8°F20.4°C 62% 5.4 mph N8.7 kmh N 15.2 mph24.5 kmh 29.41 in995.9 mb 0.00 in0.0 mm 0.00 in0.0 mm 0.00 in0.0 mm
05:00 PM 83.1°F28.4°C 68.8°F20.4°C 62% 4.5 mph N7.2 kmh N 13.0 mph20.9 kmh 29.40 in995.6 mb 0.00 in0.0 mm 0.00 in0.0 mm 0.00 in0.0 mm
05:05 PM 81.7°F27.6°C 67.4°F19.7°C 62% 5.4 mph N8.7 kmh N 13.0 mph20.9 kmh 29.41 in995.9 mb 0.00 in0.0 mm 0.00 in0.0 mm 0.00 in0.0 mm
05:10 PM 80.8°F27.1°C 66.6°F19.2°C 62% 6.0 mph NNE9.7 kmh NNE 13.0 mph20.9 kmh 29.41 in995.9 mb 0.00 in0.0 mm 0.00 in0.0 mm 0.00 in0.0 mm
05:15 PM 80.2°F26.8°C 66.1°F18.9°C 62% 4.5 mph NE7.2 kmh NE 12.1 mph19.5 kmh 29.41 in995.9 mb 0.00 in0.0 mm 0.00 in0.0 mm 0.00 in0.0 mm
05:20 PM 79.7°F26.5°C 65.6°F18.7°C 62% 6.9 mph ENE11.1 kmh ENE 11.4 mph18.3 kmh 29.41 in995.9 mb 0.00 in0.0 mm 0.00 in0.0 mm 0.00 in0.0 mm
05:25 PM 79.2°F26.2°C 65.1°F18.4°C 62% 7.6 mph E12.2 kmh E 15.9 mph25.6 kmh 29.41 in995.9 mb 0.00 in0.0 mm 0.00 in0.0 mm 0.00 in0.0 mm
05:30 PM 78.6°F25.9°C 64.6°F18.1°C 62% 8.3 mph ENE13.4 kmh ENE 15.9 mph25.6 kmh 29.41 in995.9 mb 0.00 in0.0 mm 0.00 in0.0 mm 0.00 in0.0 mm
05:35 PM 78.4°F25.8°C 64.4°F18.0°C 62% 8.3 mph ENE13.4 kmh ENE 15.9 mph25.6 kmh 29.41 in995.9 mb 0.00 in0.0 mm 0.00 in0.0 mm 0.00 in0.0 mm
05:40 PM 78.4°F25.8°C 64.4°F18.0°C 62% 3.8 mph E6.1 kmh E 14.5 mph23.3 kmh 29.41 in995.9 mb 0.00 in0.0 mm 0.00 in0.0 mm 0.00 in0.0 mm
05:45 PM 78.3°F25.7°C 64.2°F17.9°C 62% 1.6 mph E2.6 kmh E 14.5 mph23.3 kmh 29.41 in995.9 mb 0.00 in0.0 mm 0.00 in0.0 mm 0.00 in0.0 mm
05:50 PM 78.3°F25.7°C 64.2°F17.9°C 62% 6.9 mph E11.1 kmh E 9.8 mph15.8 kmh 29.41 in995.9 mb 0.00 in0.0 mm 0.00 in0.0 mm 0.00 in0.0 mm
05:55 PM 77.9°F25.5°C 63.9°F17.7°C 62% 5.4 mph E8.7 kmh E 11.4 mph18.3 kmh 29.41 in995.9 mb 0.00 in0.0 mm 0.00 in0.0 mm 0.00 in0.0 mm
06:00 PM 77.5°F25.3°C 63.5°F17.5°C 62% 5.4 mph ENE8.7 kmh ENE 11.4 mph18.3 kmh 29.41 in995.9 mb 0.00 in0.0 mm 0.00 in0.0 mm 0.00 in0.0 mm
06:05 PM 77.4°F25.2°C 63.4°F17.4°C 62% 4.5 mph NE7.2 kmh NE 21.3 mph34.3 kmh 29.41 in995.9 mb 0.00 in0.0 mm 0.00 in0.0 mm 0.00 in0.0 mm
06:10 PM 77.2°F25.1°C 63.2°F17.3°C 62% 5.4 mph NE8.7 kmh NE 21.3 mph34.3 kmh 29.41 in995.9 mb 0.00 in0.0 mm 0.00 in0.0 mm 0.00 in0.0 mm
06:15 PM 77.2°F25.1°C 63.2°F17.3°C 62% 4.5 mph NE7.2 kmh NE 15.9 mph25.6 kmh 29.41 in995.9 mb 0.00 in0.0 mm 0.00 in0.0 mm 0.00 in0.0 mm
06:20 PM 77.2°F25.1°C 63.2°F17.3°C 62% 3.8 mph NE6.1 kmh NE 13.0 mph20.9 kmh 29.41 in995.9 mb 0.00 in0.0 mm 0.00 in0.0 mm 0.00 in0.0 mm
06:25 PM 76.8°F24.9°C 62.9°F17.2°C 62% 2.2 mph E3.5 kmh E 13.0 mph20.9 kmh 29.40 in995.6 mb 0.00 in0.0 mm 0.00 in0.0 mm 0.00 in0.0 mm
06:30 PM 76.6°F24.8°C 62.7°F17.1°C 62% 4.5 mph E7.2 kmh E 8.3 mph13.4 kmh 29.41 in995.9 mb 0.00 in0.0 mm 0.00 in0.0 mm 0.00 in0.0 mm
06:35 PM 76.6°F24.8°C 62.7°F17.1°C 62% 4.5 mph N7.2 kmh N 16.8 mph27.0 kmh 29.41 in995.9 mb 0.00 in0.0 mm 0.00 in0.0 mm 0.00 in0.0 mm
06:40 PM 76.6°F24.8°C 62.7°F17.1°C 62% 6.0 mph NW9.7 kmh NW 16.8 mph27.0 kmh 29.41 in995.9 mb 0.00 in0.0 mm 0.00 in0.0 mm 0.00 in0.0 mm
06:45 PM 76.5°F24.7°C 62.5°F16.9°C 62% 3.8 mph WNW6.1 kmh WNW 14.5 mph23.3 kmh 29.41 in995.9 mb 0.00 in0.0 mm 0.00 in0.0 mm 0.00 in0.0 mm
06:50 PM 76.5°F24.7°C 62.5°F16.9°C 62% 1.6 mph WNW2.6 kmh WNW 7.6 mph12.2 kmh 29.41 in995.9 mb 0.00 in0.0 mm 0.00 in0.0 mm 0.00 in0.0 mm
06:55 PM 76.3°F24.6°C 62.3°F16.8°C 62% 1.6 mph NW2.6 kmh NW 5.4 mph8.7 kmh 29.41 in995.9 mb 0.00 in0.0 mm 0.00 in0.0 mm 0.00 in0.0 mm
07:00 PM 76.3°F24.6°C 62.3°F16.8°C 62% 3.8 mph WNW6.1 kmh WNW 5.4 mph8.7 kmh 29.41 in995.9 mb 0.00 in0.0 mm 0.00 in0.0 mm 0.00 in0.0 mm
07:05 PM 75.9°F24.4°C 62.0°F16.7°C 62% 2.2 mph W3.5 kmh W 5.4 mph8.7 kmh 29.41 in995.9 mb 0.00 in0.0 mm 0.00 in0.0 mm 0.00 in0.0 mm
07:10 PM 75.7°F24.3°C 61.8°F16.6°C 62% 3.1 mph WNW5.0 kmh WNW 8.3 mph13.4 kmh 29.41 in995.9 mb 0.00 in0.0 mm 0.00 in0.0 mm 0.00 in0.0 mm
07:15 PM 75.4°F24.1°C 61.5°F16.4°C 62% 2.2 mph NW3.5 kmh NW 8.3 mph13.4 kmh 29.42 in996.3 mb 0.00 in0.0 mm 0.00 in0.0 mm 0.00 in0.0 mm
07:20 PM 75.2°F24.0°C 61.3°F16.3°C 62% 6.0 mph NNW9.7 kmh NNW 9.8 mph15.8 kmh 29.41 in995.9 mb 0.00 in0.0 mm 0.00 in0.0 mm 0.00 in0.0 mm
07:25 PM 75.4°F24.1°C 61.5°F16.4°C 62% 0.7 mph N1.1 kmh N 13.6 mph21.9 kmh 29.41 in995.9 mb 0.00 in0.0 mm 0.00 in0.0 mm 0.00 in0.0 mm
07:30 PM 75.2°F24.0°C 61.3°F16.3°C 62% 1.6 mph N2.6 kmh N 13.6 mph21.9 kmh 29.41 in995.9 mb 0.00 in0.0 mm 0.00 in0.0 mm 0.00 in0.0 mm
07:35 PM 75.0°F23.9°C 61.2°F16.2°C 62% 0.7 mph NW1.1 kmh NW 8.3 mph13.4 kmh 29.41 in995.9 mb 0.00 in0.0 mm 0.00 in0.0 mm 0.00 in0.0 mm
07:40 PM 74.8°F23.8°C 61.0°F16.1°C 62% 3.8 mph NW6.1 kmh NW 9.2 mph14.8 kmh 29.41 in995.9 mb 0.00 in0.0 mm 0.00 in0.0 mm 0.00 in0.0 mm
07:45 PM 74.5°F23.6°C 60.6°F15.9°C 62% 2.2 mph NW3.5 kmh NW 9.2 mph14.8 kmh 29.41 in995.9 mb 0.00 in0.0 mm 0.00 in0.0 mm 0.00 in0.0 mm
07:50 PM 74.5°F23.6°C 60.6°F15.9°C 62% 4.5 mph NW7.2 kmh NW 7.6 mph12.2 kmh 29.41 in995.9 mb 0.00 in0.0 mm 0.00 in0.0 mm 0.00 in0.0 mm
07:55 PM 74.3°F23.5°C 60.5°F15.8°C 62% 3.1 mph NW5.0 kmh NW 7.6 mph12.2 kmh 29.41 in995.9 mb 0.00 in0.0 mm 0.00 in0.0 mm 0.00 in0.0 mm
08:00 PM 74.3°F23.5°C 60.5°F15.8°C 62% 5.4 mph NW8.7 kmh NW 9.8 mph15.8 kmh 29.42 in996.3 mb 0.00 in0.0 mm 0.00 in0.0 mm 0.00 in0.0 mm
08:05 PM 74.5°F23.6°C 60.6°F15.9°C 62% 7.6 mph WNW12.2 kmh WNW 13.0 mph20.9 kmh 29.41 in995.9 mb 0.00 in0.0 mm 0.00 in0.0 mm 0.00 in0.0 mm
08:10 PM 74.5°F23.6°C 60.6°F15.9°C 62% 3.8 mph WSW6.1 kmh WSW 17.4 mph28.0 kmh 29.42 in996.3 mb 0.00 in0.0 mm 0.00 in0.0 mm 0.00 in0.0 mm
08:15 PM 74.3°F23.5°C 60.5°F15.8°C 62% 4.5 mph SW7.2 kmh SW 17.4 mph28.0 kmh 29.42 in996.3 mb 0.00 in0.0 mm 0.00 in0.0 mm 0.00 in0.0 mm
08:20 PM 74.3°F23.5°C 60.5°F15.8°C 62% 3.8 mph SW6.1 kmh SW 9.2 mph14.8 kmh 29.42 in996.3 mb 0.00 in0.0 mm 0.00 in0.0 mm 0.00 in0.0 mm
08:25 PM 74.1°F23.4°C 60.3°F15.7°C 62% 4.5 mph S7.2 kmh S 7.6 mph12.2 kmh 29.41 in995.9 mb 0.00 in0.0 mm 0.00 in0.0 mm 0.00 in0.0 mm
08:30 PM 73.8°F23.2°C 60.0°F15.6°C 62% 5.4 mph S8.7 kmh S 9.8 mph15.8 kmh 29.42 in996.3 mb 0.00 in0.0 mm 0.00 in0.0 mm 0.00 in0.0 mm
08:35 PM 73.6°F23.1°C 59.8°F15.4°C 62% 0.7 mph SW1.1 kmh SW 9.8 mph15.8 kmh 29.41 in995.9 mb 0.00 in0.0 mm 0.00 in0.0 mm 0.00 in0.0 mm
08:40 PM 73.0°F22.8°C 59.3°F15.2°C 62% 2.2 mph W3.5 kmh W 9.8 mph15.8 kmh 29.41 in995.9 mb 0.00 in0.0 mm 0.00 in0.0 mm 0.00 in0.0 mm
08:45 PM 72.5°F22.5°C 58.8°F14.9°C 62% 0.7 mph W1.1 kmh W 9.8 mph15.8 kmh 29.42 in996.3 mb 0.00 in0.0 mm 0.00 in0.0 mm 0.00 in0.0 mm
08:50 PM 72.0°F22.2°C 58.3°F14.6°C 62% 1.6 mph W2.6 kmh W 3.1 mph5.0 kmh 29.41 in995.9 mb 0.00 in0.0 mm 0.00 in0.0 mm 0.00 in0.0 mm
08:55 PM 70.9°F21.6°C 57.2°F14.0°C 62% 2.2 mph W3.5 kmh W 5.4 mph8.7 kmh 29.41 in995.9 mb 0.00 in0.0 mm 0.00 in0.0 mm 0.00 in0.0 mm
09:00 PM 70.5°F21.4°C 56.9°F13.8°C 62% 3.1 mph W5.0 kmh W 5.4 mph8.7 kmh 29.41 in995.9 mb 0.00 in0.0 mm 0.00 in0.0 mm 0.00 in0.0 mm
09:05 PM 69.8°F21.0°C 56.2°F13.4°C 62% 2.2 mph W3.5 kmh W 3.8 mph6.1 kmh 29.42 in996.3 mb 0.00 in0.0 mm 0.00 in0.0 mm 0.00 in0.0 mm
09:10 PM 69.1°F20.6°C 55.5°F13.1°C 62% 2.2 mph W3.5 kmh W 3.8 mph6.1 kmh 29.42 in996.3 mb 0.00 in0.0 mm 0.00 in0.0 mm 0.00 in0.0 mm
09:15 PM 69.1°F20.6°C 55.5°F13.1°C 62% 0.7 mph W1.1 kmh W 3.1 mph5.0 kmh 29.42 in996.3 mb 0.00 in0.0 mm 0.00 in0.0 mm 0.00 in0.0 mm
09:20 PM 68.7°F20.4°C 55.2°F12.9°C 62% 3.1 mph W5.0 kmh W 4.5 mph7.2 kmh 29.41 in995.9 mb 0.00 in0.0 mm 0.00 in0.0 mm 0.00 in0.0 mm
09:25 PM 68.9°F20.5°C 55.4°F13.0°C 62% 2.2 mph WNW3.5 kmh WNW 7.6 mph12.2 kmh 29.41 in995.9 mb 0.00 in0.0 mm 0.00 in0.0 mm 0.00 in0.0 mm
09:30 PM 69.3°F20.7°C 55.7°F13.2°C 62% 1.6 mph NW2.6 kmh NW 7.6 mph12.2 kmh 29.41 in995.9 mb 0.00 in0.0 mm 0.00 in0.0 mm 0.00 in0.0 mm
09:35 PM 68.7°F20.4°C 55.2°F12.9°C 62% Calm Calm 4.5 mph7.2 kmh 29.41 in995.9 mb 0.00 in0.0 mm 0.00 in0.0 mm 0.00 in0.0 mm
09:40 PM 68.5°F20.3°C 55.0°F12.8°C 62% 3.8 mph NW6.1 kmh NW 5.4 mph8.7 kmh 29.41 in995.9 mb 0.00 in0.0 mm 0.00 in0.0 mm 0.00 in0.0 mm
09:45 PM 69.4°F20.8°C 55.9°F13.3°C 62% 3.1 mph WNW5.0 kmh WNW 8.3 mph13.4 kmh 29.41 in995.9 mb 0.00 in0.0 mm 0.00 in0.0 mm 0.00 in0.0 mm
09:50 PM 70.0°F21.1°C 56.4°F13.6°C 62% 0.7 mph W1.1 kmh W 8.3 mph13.4 kmh 29.41 in995.9 mb 0.00 in0.0 mm 0.00 in0.0 mm 0.00 in0.0 mm
09:55 PM 70.2°F21.2°C 56.6°F13.7°C 62% 3.1 mph W5.0 kmh W 9.2 mph14.8 kmh 29.41 in995.9 mb 0.00 in0.0 mm 0.00 in0.0 mm 0.00 in0.0 mm
10:00 PM 70.2°F21.2°C 56.6°F13.7°C 62% 3.8 mph NW6.1 kmh NW 9.2 mph14.8 kmh 29.40 in995.6 mb 0.00 in0.0 mm 0.00 in0.0 mm 0.00 in0.0 mm
10:05 PM 70.5°F21.4°C 56.9°F13.8°C 62% 0.7 mph N1.1 kmh N 6.9 mph11.1 kmh 29.41 in995.9 mb 0.00 in0.0 mm 0.00 in0.0 mm 0.00 in0.0 mm
10:10 PM 70.3°F21.3°C 56.7°F13.7°C 62% Calm Calm 6.9 mph11.1 kmh 29.41 in995.9 mb 0.00 in0.0 mm 0.00 in0.0 mm 0.00 in0.0 mm
10:15 PM 70.2°F21.2°C 56.6°F13.7°C 62% Calm Calm 3.8 mph6.1 kmh 29.41 in995.9 mb 0.00 in0.0 mm 0.00 in0.0 mm 0.00 in0.0 mm
10:20 PM 70.2°F21.2°C 56.6°F13.7°C 62% Calm Calm 9.8 mph15.8 kmh 29.41 in995.9 mb 0.00 in0.0 mm 0.00 in0.0 mm 0.00 in0.0 mm
10:25 PM 70.3°F21.3°C 56.7°F13.7°C 62% 1.6 mph N2.6 kmh N 9.8 mph15.8 kmh 29.41 in995.9 mb 0.00 in0.0 mm 0.00 in0.0 mm 0.00 in0.0 mm
10:30 PM 70.3°F21.3°C 56.7°F13.7°C 62% 1.6 mph N2.6 kmh N 6.0 mph9.7 kmh 29.40 in995.6 mb 0.00 in0.0 mm 0.00 in0.0 mm 0.00 in0.0 mm
10:35 PM 70.5°F21.4°C 56.9°F13.8°C 62% 3.1 mph N5.0 kmh N 7.6 mph12.2 kmh 29.41 in995.9 mb 0.00 in0.0 mm 0.00 in0.0 mm 0.00 in0.0 mm
10:40 PM 70.9°F21.6°C 57.2°F14.0°C 62% 3.8 mph N6.1 kmh N 7.6 mph12.2 kmh 29.41 in995.9 mb 0.00 in0.0 mm 0.00 in0.0 mm 0.00 in0.0 mm
10:45 PM 70.9°F21.6°C 57.2°F14.0°C 62% 2.2 mph N3.5 kmh N 9.2 mph14.8 kmh 29.41 in995.9 mb 0.00 in0.0 mm 0.00 in0.0 mm 0.00 in0.0 mm
10:50 PM 70.9°F21.6°C 57.2°F14.0°C 62% 0.7 mph N1.1 kmh N 9.2 mph14.8 kmh 29.41 in995.9 mb 0.00 in0.0 mm 0.00 in0.0 mm 0.00 in0.0 mm
10:55 PM 70.5°F21.4°C 56.9°F13.8°C 62% 0.7 mph N1.1 kmh N 8.3 mph13.4 kmh 29.40 in995.6 mb 0.00 in0.0 mm 0.00 in0.0 mm 0.00 in0.0 mm
11:00 PM 70.3°F21.3°C 56.7°F13.7°C 62% 1.6 mph N2.6 kmh N 3.8 mph6.1 kmh 29.41 in995.9 mb 0.00 in0.0 mm 0.00 in0.0 mm 0.00 in0.0 mm
11:05 PM 70.3°F21.3°C 56.7°F13.7°C 62% 3.1 mph N5.0 kmh N 8.3 mph13.4 kmh 29.41 in995.9 mb 0.00 in0.0 mm 0.00 in0.0 mm 0.00 in0.0 mm
11:10 PM 70.0°F21.1°C 56.4°F13.6°C 62% 1.6 mph NNE2.6 kmh NNE 8.3 mph13.4 kmh 29.42 in996.3 mb 0.00 in0.0 mm 0.00 in0.0 mm 0.00 in0.0 mm
11:15 PM 70.2°F21.2°C 56.6°F13.7°C 62% 1.6 mph NNE2.6 kmh NNE 4.5 mph7.2 kmh 29.41 in995.9 mb 0.00 in0.0 mm 0.00 in0.0 mm 0.00 in0.0 mm
11:20 PM 70.0°F21.1°C 56.4°F13.6°C 62% 1.6 mph NNE2.6 kmh NNE 3.1 mph5.0 kmh 29.41 in995.9 mb 0.00 in0.0 mm 0.00 in0.0 mm 0.00 in0.0 mm
11:25 PM 70.2°F21.2°C 56.6°F13.7°C 62% 6.0 mph NE9.7 kmh NE 9.8 mph15.8 kmh 29.41 in995.9 mb 0.00 in0.0 mm 0.00 in0.0 mm 0.00 in0.0 mm
11:30 PM 70.3°F21.3°C 56.7°F13.7°C 62% 3.8 mph NE6.1 kmh NE 9.8 mph15.8 kmh 29.41 in995.9 mb 0.00 in0.0 mm 0.00 in0.0 mm 0.00 in0.0 mm
11:35 PM 70.5°F21.4°C 56.9°F13.8°C 62% 3.8 mph NE6.1 kmh NE 9.8 mph15.8 kmh 29.41 in995.9 mb 0.00 in0.0 mm 0.00 in0.0 mm 0.00 in0.0 mm
11:40 PM 70.5°F21.4°C 56.9°F13.8°C 62% 6.9 mph NE11.1 kmh NE 16.8 mph27.0 kmh 29.41 in995.9 mb 0.00 in0.0 mm 0.00 in0.0 mm 0.00 in0.0 mm
11:50 PM 70.5°F21.4°C 56.9°F13.8°C 62% 10.7 mph NE17.2 kmh NE 14.5 mph23.3 kmh 29.40 in995.6 mb 0.00 in0.0 mm 0.00 in0.0 mm 0.00 in0.0 mm
11:55 PM 70.5°F21.4°C 56.9°F13.8°C 62% 9.8 mph NE15.8 kmh NE 14.5 mph23.3 kmh 29.41 in995.9 mb 0.00 in0.0 mm 0.00 in0.0 mm 0.00 in0.0 mm